Dennis, Texas
Current Conditions -  °F | °C
As of 4:55 PM on Saturday 25 Oct 2014 (Local Time) from KGDJ Reporting Station
Clear Clear  
Wind Chill: 90°   Ceiling: Unl
Heat Index: 90°   Visibility: 10mi
Dew Point: 56°   Wind: 3mph
Humidity: 31%   Direction: 190°S
Pressure: 30.07"   Gusts: NA
Location:  32.62°N, 97.93°W
Report Text: KGDJ 252155Z AUTO 19003KT 10SM CLR 32/13 A3007 RMK AO2 T03230134
Loading
Personal Weather Stations






























Interactive Weather Map
Tropical Storm Tracking
New forecast layout! Learn more

10-Day Weather Forecast

Advertisements
Track Severe Weather on mobile